To NAV CANADA Home Page Login to a new session Search on AWWS site Feedback and Comments Disclaimer Vers la page française équivalente Tips FAQ What's new on the site To the Forecasts and Observations / NOTAM section To "File a Flight Plan" website Publications and other links Update of the User's profile FIC Telephone Numbers My Weather Data Folder Route Weather Data Regional Weather Data Local Weather Data To the Forecasts and Observations / NOTAM section
Request Generated 04/17/2014 at 21:30:51 UTC . Weather information available at that time is displayed.

METAR/TAF

EARLTON/EARLTON (TIMISKAMING REGIONAL)/ON    (show WxCam)

METAR CYXR 172100Z AUTO 12015KT 9SM FEW026 01/M04 A3043 RMK MAX WND
12019KT AT 2006Z SLP319=
METAR CYXR 172000Z AUTO 13017KT 9SM SCT020 BKN026 00/M03 A3046 RMK
MAX WND 13018KT AT 1958Z SLP331=
SPECI CYXR 171956Z AUTO 12017KT 9SM SCT020 BKN026 00/M03 A3046 RMK
MAX WND 12018KT AT 1953Z SLP332=
METAR CYXR 171900Z AUTO 11013KT 9SM BKN013 00/M02 A3048 RMK SLP339=

TAF CYXR 171738Z 1718/1724 13015KT 2SM -SN OVC015 TEMPO 1718/1720 6SM
-SN SCT015 OVC030
FM172000 13015KT P6SM SCT015 OVC040 TEMPO 1720/1722 5SM -SN
BKN015 OVC040
FM172200 13012KT P6SM SCT040 OVC090
RMK FCST BASED ON AUTO OBS. NXT FCST WILL BE ISSUED AT 181145Z=
Your time UTC time
Weather data provided by Environment Canada and NAV CANADA